Weather observations for the past three days for
Deadhorse, Deadhorse Airport
| Date | Time (akdt) | Wind (mph) | Vis. (mi.) | Weather | Sky Cond. | Temperature (ºF) | Relative Humidity | Wind Chill (°F) | Heat Index (°F) | Pressure | Precipitation (in) | ||||||
|---|---|---|---|---|---|---|---|---|---|---|---|---|---|---|---|---|---|
| Air | Dwpt | 6 hour | altimeter (in) | sea level (mb) | 1 hr | 3 hr | 6 hr | ||||||||||
| Max. | Min. | ||||||||||||||||
| 05 | 12:53 | N 9 | 1.00 | Light Snow Fog/Mist | SCT023 BKN030 OVC036 | 25 | 23 | 92% | 16 | 29.72 | 1006.5 | ||||||
| 05 | 11:53 | N 9 | 1.00 | Light Snow Fog/Mist | BKN018 OVC025 | 25 | 23 | 92% | 16 | 29.73 | 1006.8 | ||||||
| 05 | 10:53 | N 12 | 0.75 | Light Snow Fog/Mist | FEW004 FEW009 OVC016 | 24.1 | 21.9 | 91% | 14 | 29.73 | 1006.9 | ||||||
| 05 | 09:53 | NE 10 | 0.75 | Light Snow Fog/Mist | OVC004 | 25 | 24.1 | 25 | 25 | 96% | 16 | 29.75 | 1007.5 | ||||
| 05 | 08:53 | NE 16 | 1.25 | Light Snow Fog/Mist | OVC004 | 25 | 24.1 | 96% | 13 | 29.76 | 1007.8 | ||||||
| 05 | 07:53 | NE 16 | 1.25 | Light Snow Blowing Snow | OVC004 | 25 | 23 | 92% | 13 | 29.77 | 1008.2 | ||||||
| 05 | 06:53 | NE 13 | 1.25 | Light Snow Fog/Mist | OVC012 | 25 | 23 | 92% | 14 | 29.79 | 1008.8 | ||||||
| 05 | 05:53 | NE 15 | 0.75 | Light Snow Fog/Mist | OVC007 | 25 | 23 | 92% | 13 | 29.8 | 1009.2 | ||||||
| 05 | 04:53 | NE 18 | 5.00 | Fog/Mist | OVC004 | 25 | 24.1 | 96% | 12 | 29.82 | 1010.0 | ||||||
| 05 | 03:53 | NE 16 | 3.00 | Fog/Mist | OVC003 | 25 | 24.1 | 27 | 25 | 96% | 13 | 29.83 | 1010.4 | ||||
| 05 | 02:53 | NE 18 | 9.00 | Overcast | OVC005 | 25 | 24.1 | 96% | 12 | 29.85 | 1011.0 | ||||||
| 05 | 01:53 | NE 18 | 9.00 | Overcast | OVC005 | 25 | 24.1 | 96% | 12 | 29.88 | 1011.9 | ||||||
| 05 | 00:53 | NE 15 | 4.00 | Fog/Mist | OVC004 | 26.1 | 25 | 96% | 15 | 29.9 | 1012.4 | ||||||
| 04 | 23:53 | NE 17 | 3.00 | Fog/Mist | OVC004 | 26.1 | 25 | 96% | 14 | 29.92 | 1013.2 | ||||||
| 04 | 22:53 | E 20 | 5.00 | Fog/Mist | OVC004 | 26.1 | 25 | 96% | 13 | 29.93 | 1013.6 | ||||||
| 04 | 21:53 | E 23 | 4.00 | Fog/Mist and Breezy | OVC005 | 27 | 25 | 28 | 26.1 | 92% | 13 | 29.95 | 1014.2 | ||||
| 04 | 20:53 | E 20 | 6.00 | Fog/Mist | OVC005 | 27 | 26.1 | 96% | 14 | 29.97 | 1015.1 | ||||||
| 04 | 19:53 | E 20 | 4.00 | Fog/Mist | OVC004 | 27 | 26.1 | 96% | 14 | 29.99 | 1015.7 | ||||||
| 04 | 18:53 | E 24 | 4.00 | Fog/Mist and Breezy | OVC004 | 27 | 25 | 92% | 13 | 30.02 | 1016.5 | ||||||
| 04 | 17:53 | E 22 | 4.00 | Fog/Mist and Breezy | BKN004 | 27 | 25 | 92% | 14 | 30.04 | 1017.3 | ||||||
| 04 | 16:53 | E 20 | 7.00 | Overcast | BKN005 OVC036 | 26.1 | 24.1 | 92% | 13 | 30.06 | 1018.0 | ||||||
| 04 | 15:53 | E 20 | 7.00 | Overcast | BKN005 OVC036 | 26.1 | 24.1 | 27 | 24.1 | 92% | 13 | 30.08 | 1018.7 | ||||
| 04 | 14:53 | E 20 | 10.00 | Mostly Cloudy | BKN004 BKN036 BKN080 | 26.1 | 24.1 | 92% | 13 | 30.1 | 1019.4 | ||||||
| 04 | 13:53 | E 21 | 9.00 | Mostly Cloudy and Breezy | SCT004 BKN036 BKN080 | 26.1 | 24.1 | 92% | 13 | 30.11 | 1019.7 | ||||||
| 04 | 12:53 | E 16 | 10.00 | Mostly Cloudy | FEW005 BKN037 | 26.1 | 24.1 | 92% | 14 | 30.12 | 1020.2 | ||||||
| 04 | 11:53 | E 15 | 10.00 | Overcast | OVC043 | 25 | 23 | 92% | 13 | 30.14 | 1020.6 | ||||||
| 04 | 10:53 | E 17 | 6.00 | Fog/Mist | SCT004 BKN060 BKN090 | 25 | 21.9 | 88% | 13 | 30.14 | 1020.9 | ||||||
| 04 | 09:53 | E 16 | 2.00 | Fog/Mist | BKN004 OVC055 | 24.1 | 23 | 27 | 24.1 | 96% | 12 | 30.15 | 1020.9 | ||||
| 04 | 08:53 | E 14 | 2.00 | Light Snow Fog/Mist | OVC005 | 25 | 23 | 92% | 14 | 30.15 | 1021.2 | ||||||
| 04 | 07:53 | NE 15 | 1.00 | Light Snow Fog/Mist | OVC003 | 25 | 23 | 92% | 13 | 30.15 | 1021.0 | ||||||
| 04 | 06:53 | NE 13 | 0.50 | Light Snow Freezing Fog | OVC002 | 26.1 | 25 | 96% | 16 | 30.16 | 1021.3 | ||||||
| 04 | 05:53 | NE 10 | 3.00 | Fog/Mist | OVC003 | 26.1 | 25 | 96% | 17 | 30.15 | 1021.1 | ||||||
| 04 | 04:53 | NE 8 | 4.00 | Fog/Mist | OVC003 | 27 | 26.1 | 96% | 19 | 30.16 | 1021.3 | ||||||
| 04 | 03:53 | NE 10 | 2.50 | Fog/Mist | OVC002 | 27 | 26.1 | 30 | 27 | 96% | 18 | 30.15 | 1021.0 | ||||
| 04 | 02:53 | N 8 | 8.00 | Overcast | OVC005 | 27 | 26.1 | 96% | 19 | 30.14 | 1020.7 | ||||||
| 04 | 01:53 | N 5 | 8.00 | Overcast | OVC008 | 28 | 26.1 | 92% | 24 | 30.14 | 1020.9 | ||||||
| 04 | 00:53 | N 5 | 8.00 | Overcast | SCT005 BKN060 OVC110 | 28 | 27 | 96% | 24 | 30.14 | 1020.6 | ||||||
| 03 | 23:53 | NW 6 | 8.00 | Overcast | OVC055 | 28.9 | 28 | 96% | 23 | 30.13 | 1020.2 | ||||||
| 03 | 22:53 | NW 9 | 8.00 | Overcast | BKN055 OVC080 | 30 | 28 | 92% | 22 | 30.11 | 1019.7 | ||||||
| 03 | 21:53 | NW 12 | 8.00 | Overcast | OVC055 | 30 | 28 | 32 | 30 | 92% | 21 | 30.1 | 1019.4 | ||||
| 03 | 20:53 | NW 10 | 8.00 | Overcast | FEW006 OVC050 | 30.9 | 28.9 | 92% | 23 | 30.09 | 1019.0 | ||||||
| 03 | 19:53 | W 14 | 6.00 | Fog/Mist | BKN007 OVC055 | 30.9 | 28.9 | 92% | 21 | 30.08 | 1018.6 | ||||||
| 03 | 18:53 | W 14 | 10.00 | Overcast | BKN007 OVC055 | 30.9 | 28.9 | 92% | 21 | 30.06 | 1018.0 | ||||||
| 03 | 17:53 | W 15 | 10.00 | Overcast | SCT006 OVC055 | 32 | 28.9 | 88% | 22 | 30.05 | 1017.6 | ||||||
| 03 | 16:53 | W 15 | 10.00 | Overcast | SCT007 BKN050 OVC080 | 30.9 | 28.9 | 92% | 21 | 30.03 | 1017.1 | ||||||
| 03 | 15:53 | W 16 | 10.00 | Overcast | FEW007 SCT048 OVC075 | 30.9 | 28.9 | 35.1 | 30.9 | 92% | 21 | 30 | 1016.1 | ||||
| 03 | 14:53 | W 15 | 10.00 | Overcast | SCT007 OVC055 | 32 | 30 | 92% | 22 | 29.98 | 1015.2 | ||||||
| 03 | 13:53 | W 17 | 10.00 | Overcast | FEW047 OVC055 | 33.1 | 30 | 89% | 23 | 29.96 | 1014.6 | ||||||
| 03 | 12:53 | W 22 | 10.00 | Mostly Cloudy and Breezy | FEW005 SCT070 BKN085 | 32 | 30 | 92% | 20 | 29.93 | 1013.6 | ||||||
| 03 | 11:53 | W 17 | 10.00 | Mostly Cloudy | FEW050 FEW080 BKN100 | 35.1 | 30.9 | 85% | 26 | 29.9 | 1012.8 | ||||||
| 03 | 10:53 | W 10 | 10.00 | Mostly Cloudy | SCT080 BKN100 | 33.1 | 30 | 89% | 26 | 29.88 | 1012.0 | ||||||
| 03 | 09:53 | SW 9 | 10.00 | Overcast | OVC080 | 32 | 30 | 32 | 24.1 | 92% | 25 | 29.86 | 1011.3 | ||||
| 03 | 08:53 | SW 9 | 10.00 | Overcast | OVC070 | 30.9 | 28.9 | 92% | 24 | 29.85 | 1010.8 | ||||||
| 03 | 07:53 | W 5 | 10.00 | Overcast | OVC070 | 28.9 | 27 | 92% | 25 | 29.84 | 1010.4 | ||||||
| 03 | 06:53 | SW 3 | 10.00 | Overcast | OVC065 | 28 | 26.1 | 92% | 29.82 | 1010.0 | |||||||
| 03 | 05:53 | SE 5 | 8.00 | Overcast | OVC065 | 25 | 24.1 | 96% | 20 | 29.82 | 1009.8 | ||||||
| 03 | 04:53 | E 5 | 6.00 | Light Freezing Rain Fog/Mist | BKN022 OVC060 | 25 | 25 | 100% | 20 | 29.8 | 1009.3 | ||||||
| 03 | 02:53 | Calm | 7.00 | Mostly Cloudy | SCT011 SCT019 BKN035 | 26.1 | 25 | 96% | 29.79 | 1008.8 | |||||||
| 03 | 01:53 | SW 3 | 7.00 | Overcast | OVC011 | 26.1 | 25 | 96% | 29.78 | 1008.5 | |||||||
| 03 | 00:53 | W 5 | 8.00 | Overcast | OVC016 | 26.1 | 24.1 | 92% | 21 | 29.76 | 1008.0 | ||||||
| 02 | 23:53 | SW 6 | 6.00 | Fog/Mist | BKN027 BKN037 OVC085 | 26.1 | 24.1 | 92% | 20 | 29.75 | 1007.5 | ||||||
| 02 | 22:53 | W 6 | 6.00 | Fog/Mist | OVC042 | 27 | 25 | 92% | 21 | 29.73 | 1006.9 | ||||||
| 02 | 21:53 | W 8 | 7.00 | Overcast | BKN008 BKN044 OVC055 | 27 | 25 | 28.9 | 27 | 92% | 19 | 29.72 | 1006.4 | ||||
| 02 | 20:53 | W 7 | 8.00 | Overcast | SCT008 OVC060 | 28 | 25 | 88% | 22 | 29.7 | 1005.8 | ||||||
| 02 | 19:53 | W 3 | 7.00 | Overcast | BKN007 OVC055 | 28 | 26.1 | 92% | 29.68 | 1005.0 | |||||||
| 02 | 18:53 | Calm | 7.00 | Overcast | SCT065 OVC080 | 28 | 26.1 | 92% | 29.66 | 1004.5 | |||||||
| 02 | 17:53 | E 3 | 5.00 | Fog/Mist | BKN006 OVC044 | 28 | 25 | 88% | 29.64 | 1003.9 | |||||||
| 02 | 16:53 | E 5 | 4.00 | Fog/Mist | BKN006 OVC042 | 27 | 25 | 92% | 22 | 29.63 | 1003.3 | ||||||
| 02 | 15:53 | E 3 | 7.00 | Overcast | OVC006 | 27 | 25 | 27 | 23 | 92% | 29.61 | 1002.7 | |||||
| 02 | 14:53 | E 7 | 7.00 | Overcast | OVC006 | 26.1 | 24.1 | 92% | 19 | 29.59 | 1002.0 | ||||||
| 02 | 13:53 | E 10 | 7.00 | Overcast | OVC006 | 26.1 | 24.1 | 92% | 17 | 29.57 | 1001.4 | ||||||
| Date | Time (akdt) | Wind (mph) | Vis. (mi.) | Weather | Sky Cond. | Air | Dwpt | Max. | Min. | Relative Humidity | Wind Chill (°F) | Heat Index (°F) | altimeter (in) | sea level (mb) | 1 hr | 3 hr | 6 hr |
| 6 hour | |||||||||||||||||
| Temperature (ºF) | Pressure | Precipitation (in) | |||||||||||||||